Time;durP1;ratioP1;P1;durP2;ratioP2;P2;SDS_P1;SDS_P2;PMS_P1;PMS_P2;Temp;Humidity;BMP_temperature;BMP_pressure;BME280_temperature;BME280_humidity;BME280_pressure;Samples;Min_cycle;Max_cycle;Signal;HPM_P1;HPM_P2
2023/01/28 00:03:19;;;;;;;23.10;11.68;;;16.10;73.00;;;;;;10492901;28;19975;-25
2023/01/28 00:08:21;;;;;;;22.80;11.15;;;16.00;73.20;;;;;;10493680;28;20187;-25
2023/01/28 00:13:24;;;;;;;23.40;11.07;;;16.10;73.00;;;;;;10495049;28;20137;-25
2023/01/28 00:18:26;;;;;;;23.88;11.73;;;16.00;73.10;;;;;;10500470;28;20057;-25
2023/01/28 00:23:30;;;;;;;21.90;10.93;;;16.00;73.20;;;;;;10472937;28;20066;-25
2023/01/28 00:28:34;;;;;;;20.75;9.90;;;16.00;73.20;;;;;;10500054;28;20136;-26
2023/01/28 00:33:36;;;;;;;19.58;10.35;;;16.00;73.00;;;;;;10512096;28;20106;-28
2023/01/28 00:38:38;;;;;;;18.33;9.83;;;16.00;72.90;;;;;;10484032;28;20047;-25
2023/01/28 00:43:43;;;;;;;17.67;8.97;;;16.00;72.90;;;;;;10501413;28;20109;-25
2023/01/28 00:48:46;;;;;;;19.95;8.13;;;16.00;72.80;;;;;;10496203;28;20040;-24
2023/01/28 00:53:48;;;;;;;14.13;7.72;;;16.00;72.80;;;;;;10469727;28;20043;-25
2023/01/28 00:58:51;;;;;;;19.05;7.88;;;16.00;72.90;;;;;;10480593;28;20040;-26
2023/01/28 01:04:01;;;;;;;14.63;7.45;;;15.90;73.00;;;;;;10491055;28;20040;-25
2023/01/28 01:09:05;;;;;;;12.57;7.25;;;16.00;72.80;;;;;;10484104;28;20044;-27
2023/01/28 01:14:10;;;;;;;13.77;6.47;;;16.00;72.70;;;;;;10487623;28;20136;-25
2023/01/28 01:19:12;;;;;;;14.82;7.85;;;16.00;72.80;;;;;;10489901;28;20102;-25
2023/01/28 01:24:14;;;;;;;13.90;6.70;;;15.90;72.90;;;;;;10502348;28;20072;-26
2023/01/28 01:29:17;;;;;;;13.90;7.50;;;15.90;73.00;;;;;;10487479;28;20083;-25
2023/01/28 01:34:19;;;;;;;16.95;7.95;;;15.90;72.90;;;;;;10489214;28;20075;-25
2023/01/28 01:39:21;;;;;;;12.73;6.50;;;15.90;73.60;;;;;;10494583;28;20503;-28
2023/01/28 01:44:55;;;;;;;14.00;6.60;;;15.90;73.00;;;;;;10493737;28;20075;-25
2023/01/28 01:49:59;;;;;;;12.48;6.10;;;15.90;72.80;;;;;;10486723;28;20040;-24
2023/01/28 01:55:06;;;;;;;10.93;6.00;;;15.90;73.00;;;;;;10495038;28;20049;-26
2023/01/28 02:00:11;;;;;;;10.77;5.65;;;15.90;72.90;;;;;;10470195;28;20049;-23
2023/01/28 02:05:14;;;;;;;10.93;5.65;;;15.90;73.10;;;;;;10466123;28;20183;-25
2023/01/28 02:10:17;;;;;;;10.80;5.28;;;15.90;73.00;;;;;;10467025;28;20140;-25
2023/01/28 02:15:23;;;;;;;10.60;5.60;;;15.80;73.20;;;;;;10472030;28;20412;-25
2023/01/28 02:20:38;;;;;;;11.88;5.95;;;15.80;73.00;;;;;;10480374;28;20445;-26
2023/01/28 02:26:15;;;;;;;5.80;3.95;;;15.80;73.10;;;;;;10477104;28;20072;-26
2023/01/28 02:31:23;;;;;;;9.55;4.60;;;15.90;72.90;;;;;;10477142;28;20072;-25
2023/01/28 02:36:33;;;;;;;7.82;4.82;;;15.90;72.90;;;;;;10465034;28;20088;-25
2023/01/28 02:41:39;;;;;;;7.70;3.95;;;15.80;72.80;;;;;;10478590;28;20138;-26
2023/01/28 02:52:14;;;;;;;8.73;4.43;;;15.90;72.80;;;;;;10495595;28;20052;-25
2023/01/28 02:57:30;;;;;;;5.47;3.17;;;15.70;73.90;;;;;;10474563;28;20059;-26
2023/01/28 03:02:39;;;;;;;5.05;3.17;;;15.70;73.40;;;;;;10469705;28;20511;-25
2023/01/28 03:07:42;;;;;;;6.10;3.33;;;15.80;73.20;;;;;;10503122;28;20140;-24
2023/01/28 03:39:44;;;;;;;6.63;3.70;;;15.70;73.20;;;;;;10494779;28;20048;-28
2023/01/28 03:44:49;;;;;;;5.37;3.40;;;15.70;73.10;;;;;;10496559;28;20052;-27
2023/01/28 03:49:54;;;;;;;5.13;3.40;;;15.70;72.90;;;;;;10515887;28;20481;-26
2023/01/28 03:54:56;;;;;;;4.60;2.78;;;15.70;73.10;;;;;;10523418;28;20043;-25
2023/01/28 03:59:59;;;;;;;4.35;2.65;;;15.60;73.10;;;;;;10516997;28;20036;-24
2023/01/28 04:05:12;;;;;;;;;;;15.60;73.10;;;;;;10489474;28;20052;-26
2023/01/28 04:10:14;;;;;;;6.32;2.42;;;15.60;72.90;;;;;;10484231;28;19924;-24
2023/01/28 04:15:16;;;;;;;3.78;2.30;;;15.70;72.90;;;;;;10492987;28;20485;-27
2023/01/28 04:20:19;;;;;;;5.53;3.13;;;15.60;72.90;;;;;;10496791;28;20123;-25
2023/01/28 04:25:21;;;;;;;4.38;2.75;;;15.70;72.70;;;;;;10482945;28;20462;-25
2023/01/28 04:30:24;;;;;;;3.33;2.10;;;15.60;73.10;;;;;;10495765;28;20053;-25
2023/01/28 04:35:27;;;;;;;4.15;2.70;;;15.60;72.70;;;;;;10475684;28;20159;-25
2023/01/28 04:40:29;;;;;;;4.40;2.60;;;15.60;72.80;;;;;;10479195;28;20132;-25
2023/01/28 04:45:30;;;;;;;3.70;2.40;;;15.60;72.70;;;;;;10476296;28;20049;-25
2023/01/28 04:50:34;;;;;;;3.80;2.47;;;15.70;72.50;;;;;;10477683;28;20151;-25
2023/01/28 04:55:36;;;;;;;3.65;2.30;;;15.70;72.10;;;;;;10486663;28;20151;-25
2023/01/28 05:00:37;;;;;;;3.30;2.10;;;15.70;72.10;;;;;;10476456;28;20131;-25
2023/01/28 05:05:41;;;;;;;4.10;2.23;;;15.80;71.60;;;;;;10486748;28;20093;-25
2023/01/28 05:10:42;;;;;;;3.72;2.30;;;15.70;71.90;;;;;;10503701;28;20045;-26
2023/01/28 05:15:50;;;;;;;4.93;2.57;;;15.60;72.20;;;;;;10490580;28;20110;-25
2023/01/28 05:20:53;;;;;;;4.00;2.40;;;15.60;72.40;;;;;;10495377;28;20094;-25
2023/01/28 05:25:55;;;;;;;2.88;2.00;;;15.60;72.50;;;;;;10492318;28;20182;-26
2023/01/28 05:30:57;;;;;;;3.50;2.03;;;15.60;72.50;;;;;;10482954;28;20548;-24
2023/01/28 05:36:00;;;;;;;3.97;1.97;;;15.60;72.50;;;;;;10507307;28;20090;-25
2023/01/28 05:41:02;;;;;;;4.93;2.70;;;15.50;72.70;;;;;;10493771;28;20044;-25
2023/01/28 05:46:04;;;;;;;3.07;1.87;;;15.40;72.90;;;;;;10509552;28;20048;-26
2023/01/28 05:51:07;;;;;;;3.33;2.22;;;15.40;72.50;;;;;;10480686;28;20133;-26
2023/01/28 05:56:09;;;;;;;3.17;2.10;;;15.50;72.50;;;;;;10474845;28;20048;-26
2023/01/28 06:01:11;;;;;;;3.33;2.30;;;15.50;72.40;;;;;;10472670;28;20140;-26
2023/01/28 06:06:14;;;;;;;2.90;2.00;;;15.40;72.70;;;;;;10489683;28;20143;-23
2023/01/28 06:11:16;;;;;;;3.25;1.75;;;15.40;72.90;;;;;;10473881;28;20057;-25
2023/01/28 06:16:18;;;;;;;3.00;1.63;;;15.40;72.90;;;;;;10479788;28;20052;-26
2023/01/28 06:21:21;;;;;;;3.00;1.80;;;15.40;73.00;;;;;;10486579;28;20086;-25
2023/01/28 06:26:23;;;;;;;4.70;1.75;;;15.40;73.10;;;;;;10491976;28;20125;-25
2023/01/28 06:31:25;;;;;;;1.83;1.50;;;15.40;73.30;;;;;;10489286;28;20076;-25
2023/01/28 06:36:28;;;;;;;4.53;1.80;;;15.40;74.20;;;;;;10498080;28;20130;-25
2023/01/28 06:41:30;;;;;;;2.22;1.40;;;15.30;74.00;;;;;;10486723;28;20132;-25
2023/01/28 06:46:32;;;;;;;2.33;1.70;;;15.30;74.60;;;;;;10497428;28;20488;-25
2023/01/28 06:51:35;;;;;;;3.73;1.53;;;15.20;74.90;;;;;;10487686;28;20586;-27
2023/01/28 06:56:37;;;;;;;3.03;1.85;;;15.20;74.70;;;;;;10491299;28;20507;-27
2023/01/28 07:14:52;;;;;;;2.15;1.40;;;15.40;73.40;;;;;;10546668;27;22036;-25
2023/01/28 07:19:54;;;;;;;3.25;1.70;;;15.00;76.00;;;;;;10508827;28;20507;-26
2023/01/28 07:24:57;;;;;;;2.03;1.53;;;14.90;77.30;;;;;;10511304;28;20978;-26
2023/01/28 07:30:00;;;;;;;3.05;1.48;;;15.00;76.80;;;;;;10495809;28;20048;-26
2023/01/28 07:35:02;;;;;;;1.90;1.00;;;15.00;76.90;;;;;;10497574;28;20075;-25
2023/01/28 07:40:05;;;;;;;1.70;1.40;;;15.10;76.80;;;;;;10497825;28;20114;-26
2023/01/28 07:45:09;;;;;;;1.58;1.13;;;15.00;76.90;;;;;;10489405;28;20052;-29
2023/01/28 07:50:11;;;;;;;2.80;1.42;;;15.20;76.80;;;;;;10495989;28;20135;-25
2023/01/28 07:55:14;;;;;;;1.73;1.20;;;15.50;75.00;;;;;;10507124;28;20148;-26
2023/01/28 08:00:18;;;;;;;3.05;1.27;;;15.50;74.50;;;;;;10496475;28;20052;-25
2023/01/28 08:05:21;;;;;;;3.17;1.60;;;15.70;72.80;;;;;;10501691;28;20054;-26
2023/01/28 08:10:23;;;;;;;3.13;1.98;;;15.80;72.10;;;;;;10505785;28;20142;-25
2023/01/28 08:15:27;;;;;;;6.03;2.07;;;15.80;71.40;;;;;;10501617;28;20404;-26
2023/01/28 08:20:29;;;;;;;3.25;1.38;;;15.80;71.00;;;;;;10511003;28;20123;-26
2023/01/28 08:25:31;;;;;;;1.92;1.08;;;15.80;70.50;;;;;;10491216;28;20127;-25
2023/01/28 08:30:36;;;;;;;3.17;1.80;;;15.80;69.90;;;;;;10474361;28;20135;-25
2023/01/28 08:35:38;;;;;;;3.22;1.15;;;15.90;69.50;;;;;;10468894;28;20400;-26
2023/01/28 08:40:41;;;;;;;1.88;1.58;;;15.90;69.40;;;;;;10470869;28;20116;-24
2023/01/28 08:45:44;;;;;;;3.50;1.77;;;15.90;69.30;;;;;;10472849;28;20080;-24
2023/01/28 08:50:46;;;;;;;2.85;1.88;;;15.90;69.10;;;;;;10464499;28;20137;-25
2023/01/28 08:55:48;;;;;;;4.28;2.30;;;15.90;68.80;;;;;;10474848;28;20049;-26
2023/01/28 09:00:52;;;;;;;2.00;1.00;;;15.90;68.90;;;;;;10475003;28;20131;-25
2023/01/28 09:05:54;;;;;;;2.97;1.90;;;16.00;68.00;;;;;;10465989;28;20603;-26
2023/01/28 09:10:56;;;;;;;7.37;3.63;;;16.00;68.00;;;;;;10468396;28;21028;-26
2023/01/28 09:15:59;;;;;;;5.63;3.75;;;15.90;67.90;;;;;;10478714;28;20155;-26
2023/01/28 09:21:05;;;;;;;9.82;4.57;;;15.70;68.50;;;;;;10474922;28;20110;-25
2023/01/28 09:26:08;;;;;;;10.90;4.20;;;15.40;70.20;;;;;;10478753;28;20110;-25
2023/01/28 09:31:12;;;;;;;8.13;4.38;;;15.20;71.80;;;;;;10491505;28;20052;-25
2023/01/28 09:36:14;;;;;;;10.15;5.13;;;15.10;72.60;;;;;;10480736;28;20402;-24
2023/01/28 09:41:25;;;;;;;8.50;4.22;;;15.10;72.90;;;;;;10490790;28;20525;-25
2023/01/28 09:46:32;;;;;;;11.13;5.10;;;15.10;73.00;;;;;;10461843;28;20056;-25
2023/01/28 09:51:40;;;;;;;11.73;5.50;;;15.40;71.40;;;;;;10459068;28;20147;-25
2023/01/28 09:56:46;;;;;;;10.35;4.95;;;15.50;71.20;;;;;;10469731;28;20060;-25
2023/01/28 10:01:54;;;;;;;7.53;3.92;;;15.60;70.50;;;;;;10475047;28;20045;-25
2023/01/28 10:07:10;;;;;;;7.47;4.15;;;15.70;70.30;;;;;;10480559;28;20052;-26
2023/01/28 10:12:25;;;;;;;9.75;4.18;;;15.80;70.00;;;;;;10477068;28;20163;-26
2023/01/28 10:17:31;;;;;;;6.97;3.65;;;15.70;70.30;;;;;;10460868;28;20045;-25
2023/01/28 10:22:39;;;;;;;12.57;3.95;;;15.80;70.50;;;;;;10477986;28;20048;-26
2023/01/28 10:27:41;;;;;;;11.95;4.40;;;15.90;70.00;;;;;;10468784;28;20152;-24
2023/01/28 10:32:51;;;;;;;9.63;4.43;;;15.90;69.70;;;;;;10473223;28;20052;-25
2023/01/28 10:38:00;;;;;;;12.95;4.40;;;15.80;70.10;;;;;;10487088;28;20465;-23
2023/01/28 10:43:02;;;;;;;7.40;3.65;;;15.80;70.40;;;;;;10478315;28;20143;-25
2023/01/28 10:48:15;;;;;;;8.73;4.40;;;15.80;70.50;;;;;;10464511;28;20520;-25
2023/01/28 10:53:16;;;;;;;;;;;15.20;74.20;;;;;;10476748;28;20056;-24
2023/01/28 10:58:22;;;;;;;10.57;3.42;;;15.60;70.60;;;;;;10474139;28;20016;-26
2023/01/28 11:03:27;;;;;;;7.55;3.47;;;15.90;70.80;;;;;;10468983;28;20143;-25
2023/01/28 11:08:31;;;;;;;5.65;2.95;;;16.10;70.10;;;;;;10484597;28;20127;-24
2023/01/28 11:13:33;;;;;;;9.45;3.92;;;16.00;70.10;;;;;;10477440;28;20056;-25
2023/01/28 11:18:40;;;;;;;5.60;3.13;;;16.00;70.20;;;;;;10482534;28;20044;-25
2023/01/28 11:23:54;;;;;;;7.22;3.58;;;15.60;68.80;;;;;;10482232;28;20068;-26
2023/01/28 11:28:56;;;;;;;4.82;2.60;;;15.90;71.40;;;;;;10480582;28;20048;-24
2023/01/28 11:34:01;;;;;;;5.85;3.03;;;16.10;70.70;;;;;;10494126;28;20056;-26
2023/01/28 11:39:23;;;;;;;5.03;2.97;;;16.10;70.10;;;;;;10479976;28;20063;-26
2023/01/28 11:44:27;;;;;;;9.50;4.05;;;16.10;70.50;;;;;;10468181;28;20134;-27
2023/01/28 11:49:47;;;;;;;6.70;3.13;;;16.20;70.10;;;;;;10471514;28;20060;-25
2023/01/28 11:54:59;;;;;;;8.70;4.28;;;16.10;70.50;;;;;;10473639;28;20139;-27
2023/01/28 12:00:31;;;;;;;7.90;4.17;;;16.10;70.70;;;;;;10470406;28;20215;-24
2023/01/28 12:05:44;;;;;;;5.32;3.30;;;16.20;70.50;;;;;;10487668;28;20125;-26
2023/01/28 12:10:55;;;;;;;5.97;3.15;;;16.20;70.50;;;;;;10470479;28;20090;-25
2023/01/28 12:16:13;;;;;;;5.47;3.40;;;16.20;70.60;;;;;;10466512;28;20137;-25
2023/01/28 12:21:28;;;;;;;7.05;3.53;;;16.10;70.70;;;;;;10486481;28;20083;-25
2023/01/28 12:26:42;;;;;;;11.20;4.97;;;16.10;70.90;;;;;;10484421;28;20040;-25
2023/01/28 12:32:08;;;;;;;5.22;3.03;;;16.20;70.70;;;;;;10478455;28;20133;-25
2023/01/28 12:37:20;;;;;;;5.80;2.95;;;16.20;70.50;;;;;;10463027;28;20535;-25
2023/01/28 12:42:33;;;;;;;7.35;3.90;;;16.20;70.60;;;;;;10462279;28;20098;-27
2023/01/28 12:47:39;;;;;;;4.45;2.35;;;16.20;70.60;;;;;;10463261;28;20047;-26
2023/01/28 12:52:47;;;;;;;6.50;3.42;;;16.10;70.40;;;;;;10466524;28;20053;-26
2023/01/28 12:57:49;;;;;;;5.88;3.47;;;13.60;89.40;;;;;;10456253;28;20077;-25
2023/01/28 13:02:58;;;;;;;5.35;3.13;;;15.40;77.00;;;;;;10479075;28;20044;-26
2023/01/28 13:08:05;;;;;;;9.18;2.83;;;15.40;71.20;;;;;;10461386;28;20053;-25
2023/01/28 13:13:13;;;;;;;4.03;2.28;;;15.90;68.00;;;;;;10469664;28;20095;-25
2023/01/28 13:18:42;;;;;;;5.15;2.03;;;15.40;75.30;;;;;;10473244;28;20081;-25
2023/01/28 13:23:46;;;;;;;3.88;2.00;;;14.60;82.40;;;;;;10466305;28;20043;-24
2023/01/28 13:28:50;;;;;;;4.45;2.40;;;15.00;79.50;;;;;;10483401;28;20072;-28
2023/01/28 13:34:02;;;;;;;3.25;1.63;;;15.10;77.30;;;;;;10479281;28;20148;-25
2023/01/28 13:39:15;;;;;;;5.90;3.20;;;15.60;75.20;;;;;;10468116;28;20107;-25
2023/01/28 13:44:21;;;;;;;8.23;5.03;;;12.70;89.20;;;;;;10471288;28;20661;-23
2023/01/28 13:49:33;;;;;;;2.35;1.48;;;13.40;66.50;;;;;;10455386;28;20120;-25
2023/01/28 13:54:38;;;;;;;2.05;1.67;;;15.50;75.90;;;;;;10465687;28;20620;-25
2023/01/28 13:59:49;;;;;;;1.77;1.35;;;15.60;74.40;;;;;;10451853;28;20140;-24
2023/01/28 14:05:21;;;;;;;1.45;1.17;;;16.00;72.10;;;;;;10458492;28;20080;-27
2023/01/28 14:10:38;;;;;;;8.83;5.93;;;15.70;67.40;;;;;;10477234;28;20486;-27
2023/01/28 14:16:16;;;;;;;1.83;1.50;;;14.40;76.00;;;;;;10472952;28;20469;-26
2023/01/28 14:21:21;;;;;;;6.28;3.17;;;13.80;90.20;;;;;;10457733;28;20455;-25
2023/01/28 14:26:41;;;;;;;2.83;1.90;;;13.60;86.20;;;;;;10477369;28;20056;-25
2023/01/28 14:31:43;;;;;;;3.80;1.85;;;12.50;66.00;;;;;;10462199;28;20079;-25
2023/01/28 14:36:47;;;;;;;4.80;2.37;;;15.00;81.80;;;;;;10472037;28;20551;-26
2023/01/28 14:41:53;;;;;;;7.60;3.00;;;16.00;74.20;;;;;;10467686;28;20487;-26
2023/01/28 14:47:08;;;;;;;2.65;1.48;;;15.80;74.10;;;;;;10465293;28;20079;-25
2023/01/28 14:52:28;;;;;;;6.50;2.75;;;15.10;75.10;;;;;;10485188;28;20136;-26
2023/01/28 14:57:43;;;;;;;4.45;2.65;;;14.50;62.80;;;;;;10483223;28;20209;-26
2023/01/28 15:02:45;;;;;;;5.32;2.42;;;15.60;77.60;;;;;;10464423;28;20465;-25
2023/01/28 15:07:48;;;;;;;5.17;2.40;;;16.20;72.90;;;;;;10473590;28;20551;-29
2023/01/28 15:12:55;;;;;;;6.03;2.17;;;15.20;66.70;;;;;;10465526;28;20140;-26
2023/01/28 15:18:03;;;;;;;3.55;2.83;;;11.30;69.80;;;;;;10468793;28;20151;-27
2023/01/28 15:23:07;;;;;;;6.70;2.40;;;10.90;85.00;;;;;;10485949;28;20463;-29
2023/01/28 15:28:20;;;;;;;4.57;1.98;;;11.40;99.90;;;;;;10462633;28;20057;-25
2023/01/28 15:33:24;;;;;;;3.28;2.03;;;10.20;74.40;;;;;;10477871;28;20079;-25
2023/01/28 15:38:28;;;;;;;3.50;1.73;;;9.90;94.00;;;;;;10477784;28;20040;-24
2023/01/28 15:43:36;;;;;;;4.30;2.47;;;10.20;75.80;;;;;;10491345;28;20069;-25
2023/01/28 15:48:42;;;;;;;4.82;1.80;;;10.70;94.90;;;;;;10472937;28;20184;-25
2023/01/28 15:53:46;;;;;;;4.00;2.22;;;10.20;79.10;;;;;;10487579;28;20076;-26
2023/01/28 15:58:49;;;;;;;2.95;2.00;;;12.20;99.90;;;;;;10479823;28;20076;-26
2023/01/28 16:04:02;;;;;;;3.92;2.53;;;13.90;95.80;;;;;;10493258;28;20072;-25
2023/01/28 16:09:06;;;;;;;3.67;2.20;;;14.80;92.40;;;;;;10478963;28;20477;-25
2023/01/28 16:14:21;;;;;;;2.53;1.63;;;14.50;91.70;;;;;;10476633;28;20079;-22
2023/01/28 16:19:33;;;;;;;3.60;1.80;;;12.90;85.70;;;;;;10470473;28;20563;-25
2023/01/28 16:24:35;;;;;;;4.40;1.83;;;14.20;95.20;;;;;;10482947;28;20361;-25
2023/01/28 16:29:39;;;;;;;3.33;1.67;;;15.50;88.90;;;;;;10482584;28;20041;-24
2023/01/28 16:34:43;;;;;;;3.55;1.42;;;16.40;79.30;;;;;;10476524;28;20161;-22
2023/01/28 16:39:45;;;;;;;3.42;1.60;;;16.50;77.40;;;;;;10466600;28;20067;-25
2023/01/28 16:44:48;;;;;;;3.17;1.67;;;16.20;78.00;;;;;;10468289;28;20036;-25
2023/01/28 16:49:50;;;;;;;2.30;1.42;;;16.50;76.90;;;;;;10487141;28;20132;-26
2023/01/28 16:54:52;;;;;;;6.75;1.67;;;16.60;75.90;;;;;;10486103;28;20052;-26
2023/01/28 16:59:55;;;;;;;5.30;2.87;;;16.60;76.90;;;;;;10477431;28;20052;-24
2023/01/28 17:04:57;;;;;;;3.60;1.58;;;16.80;73.60;;;;;;10476197;28;20577;-25
2023/01/28 17:09:59;;;;;;;1.80;1.27;;;16.80;74.50;;;;;;10480101;28;20067;-25
2023/01/28 17:15:03;;;;;;;2.15;1.20;;;16.80;74.20;;;;;;10483671;28;20078;-25
2023/01/28 17:20:05;;;;;;;6.70;3.53;;;16.90;73.90;;;;;;10483642;28;20148;-24
2023/01/28 17:25:08;;;;;;;2.05;1.38;;;16.00;73.30;;;;;;10478693;28;20052;-25
2023/01/28 17:30:13;;;;;;;26.98;21.20;;;13.80;90.30;;;;;;10474681;28;20055;-25
2023/01/28 17:35:15;;;;;;;2.53;1.75;;;13.10;69.30;;;;;;10475501;28;20048;-27
2023/01/28 17:40:17;;;;;;;2.28;1.50;;;11.90;99.90;;;;;;10471672;28;20076;-25
2023/01/28 17:45:20;;;;;;;2.95;1.10;;;12.40;99.80;;;;;;10481147;28;20072;-24
2023/01/28 17:50:22;;;;;;;4.90;1.63;;;14.40;94.30;;;;;;10476715;28;20133;-26
2023/01/28 17:55:25;;;;;;;6.70;1.30;;;13.80;90.40;;;;;;10477019;28;20044;-26
2023/01/28 18:00:28;;;;;;;2.97;1.42;;;15.50;89.50;;;;;;10483359;28;20143;-25
2023/01/28 18:05:30;;;;;;;2.85;1.58;;;16.20;81.00;;;;;;10463011;28;20136;-24
2023/01/28 18:10:32;;;;;;;2.40;1.63;;;16.40;78.50;;;;;;10484408;28;20080;-25
2023/01/28 18:15:35;;;;;;;3.38;1.67;;;16.50;77.40;;;;;;10480004;28;20532;-25
2023/01/28 18:20:37;;;;;;;2.60;1.63;;;16.60;76.20;;;;;;10477452;28;20079;-23
2023/01/28 18:25:39;;;;;;;5.60;3.00;;;16.20;79.40;;;;;;10485135;28;20151;-25
2023/01/28 18:30:42;;;;;;;4.57;2.97;;;14.60;71.70;;;;;;10469232;28;20518;-27
2023/01/28 18:35:45;;;;;;;4.53;2.15;;;13.80;92.30;;;;;;10470819;28;20072;-25
2023/01/28 18:40:47;;;;;;;3.08;1.42;;;12.80;95.00;;;;;;10481187;28;20200;-25
2023/01/28 18:45:50;;;;;;;4.00;2.20;;;14.30;92.60;;;;;;10462648;28;20132;-25
2023/01/28 18:50:54;;;;;;;2.33;1.33;;;13.00;94.10;;;;;;10466909;28;20673;-26
2023/01/28 18:55:56;;;;;;;3.03;1.50;;;13.50;96.20;;;;;;10480254;28;20427;-25
2023/01/28 19:01:00;;;;;;;3.37;1.57;;;14.80;91.90;;;;;;10486483;28;20046;-25
2023/01/28 19:06:04;;;;;;;2.95;1.63;;;14.80;90.80;;;;;;10481354;28;20048;-25
2023/01/28 19:11:06;;;;;;;2.55;1.13;;;13.80;95.10;;;;;;10459509;28;20057;-26
2023/01/28 19:16:09;;;;;;;4.73;1.50;;;16.90;76.70;;;;;;10479441;28;20075;-27
2023/01/28 19:21:11;;;;;;;1.92;1.40;;;17.20;72.80;;;;;;10484824;28;20080;-26
2023/01/28 19:26:15;;;;;;;3.72;1.60;;;17.50;71.10;;;;;;10482971;28;20076;-25
2023/01/28 19:31:20;;;;;;;4.30;1.70;;;17.70;69.30;;;;;;10469376;28;20045;-24
2023/01/28 19:36:23;;;;;;;5.05;1.67;;;17.80;67.20;;;;;;10477505;28;20056;-25
2023/01/28 19:41:25;;;;;;;4.03;1.70;;;18.00;66.00;;;;;;10472219;28;20524;-27
2023/01/28 19:46:28;;;;;;;2.80;2.05;;;18.10;64.40;;;;;;10475519;28;20171;-24
2023/01/28 19:51:30;;;;;;;2.78;1.77;;;17.70;65.30;;;;;;10463149;28;20505;-26
2023/01/28 19:56:34;;;;;;;3.28;1.77;;;17.00;66.90;;;;;;10482568;28;20059;-26
2023/01/28 20:01:38;;;;;;;2.17;1.30;;;17.40;68.60;;;;;;10465820;28;20482;-27
2023/01/28 20:06:40;;;;;;;3.40;1.83;;;16.80;69.80;;;;;;10467066;28;20040;-26
2023/01/28 20:11:42;;;;;;;4.00;1.50;;;17.20;70.60;;;;;;10467123;28;20254;-27
2023/01/28 20:16:45;;;;;;;4.07;1.83;;;17.20;70.50;;;;;;10474188;28;20498;-26
2023/01/28 20:21:50;;;;;;;3.72;1.92;;;16.90;72.80;;;;;;10478284;28;20084;-25
2023/01/28 20:26:52;;;;;;;3.08;2.20;;;17.10;71.50;;;;;;10473417;28;20131;-26
2023/01/28 20:31:55;;;;;;;4.30;2.30;;;17.00;71.80;;;;;;10468624;28;20115;-26
2023/01/28 20:36:57;;;;;;;5.10;3.03;;;16.80;73.10;;;;;;10487225;28;20605;-26
2023/01/28 20:41:59;;;;;;;6.80;3.40;;;16.70;73.90;;;;;;10484889;28;20135;-27
2023/01/28 20:47:02;;;;;;;5.50;3.00;;;16.90;72.60;;;;;;10484380;28;20102;-24
2023/01/28 20:52:05;;;;;;;7.63;3.80;;;16.90;71.90;;;;;;10484230;28;20079;-24
2023/01/28 20:57:07;;;;;;;5.28;3.00;;;16.80;72.10;;;;;;10487027;28;20119;-26
2023/01/28 21:02:11;;;;;;;5.90;3.33;;;16.80;72.10;;;;;;10476202;28;20072;-25
2023/01/28 21:07:13;;;;;;;6.63;3.42;;;16.80;72.60;;;;;;10482108;28;20545;-27
2023/01/28 21:12:14;;;;;;;7.07;3.50;;;16.80;72.30;;;;;;10478824;28;20056;-25
2023/01/28 21:17:18;;;;;;;7.40;3.37;;;16.60;73.80;;;;;;10494801;28;20084;-27
2023/01/28 21:22:19;;;;;;;6.43;3.72;;;16.80;72.30;;;;;;10485302;28;20063;-25
2023/01/28 21:27:21;;;;;;;9.20;3.93;;;16.80;71.60;;;;;;10482468;28;20484;-28
2023/01/28 21:32:24;;;;;;;10.10;4.87;;;16.90;71.40;;;;;;10487487;28;20156;-25
2023/01/28 21:37:26;;;;;;;7.70;3.88;;;16.70;72.20;;;;;;10478563;28;20110;-26
2023/01/28 21:42:28;;;;;;;7.40;4.20;;;16.50;74.20;;;;;;10487919;28;20126;-26
2023/01/28 21:47:32;;;;;;;9.70;5.10;;;16.80;71.80;;;;;;10470293;28;20080;-26
2023/01/28 21:52:33;;;;;;;9.00;5.22;;;16.80;71.30;;;;;;10476490;28;20482;-29
2023/01/28 21:57:35;;;;;;;14.47;6.53;;;16.80;71.00;;;;;;10476316;28;20040;-26
2023/01/28 22:02:38;;;;;;;12.60;5.70;;;16.80;70.80;;;;;;10480360;28;20041;-25
2023/01/28 22:07:40;;;;;;;10.63;5.18;;;16.80;70.90;;;;;;10479459;28;20123;-26
2023/01/28 22:12:42;;;;;;;11.47;5.57;;;16.80;70.90;;;;;;10472042;28;20135;-25
2023/01/28 22:17:45;;;;;;;15.27;6.25;;;16.70;71.00;;;;;;10478219;28;20405;-25
2023/01/28 22:22:47;;;;;;;12.40;5.75;;;16.70;71.00;;;;;;10486172;28;20428;-25
2023/01/28 22:27:49;;;;;;;14.87;7.33;;;16.60;71.30;;;;;;10477517;28;20540;-25
2023/01/28 22:32:52;;;;;;;16.90;8.47;;;16.60;71.30;;;;;;10477103;28;20488;-26
2023/01/28 22:37:56;;;;;;;16.35;8.10;;;16.60;71.10;;;;;;10486716;28;20083;-24
2023/01/28 22:42:57;;;;;;;20.92;8.73;;;16.60;71.20;;;;;;10479806;28;20048;-25
2023/01/28 22:48:00;;;;;;;22.57;10.07;;;16.60;71.10;;;;;;10462539;28;20475;-25
2023/01/28 22:53:02;;;;;;;11.88;6.10;;;16.40;71.80;;;;;;10477762;28;20178;-27
2023/01/28 22:58:06;;;;;;;19.60;9.85;;;16.40;71.60;;;;;;10466830;28;20060;-25
2023/01/28 23:03:09;;;;;;;25.77;9.77;;;16.40;72.80;;;;;;10483973;28;20048;-26
2023/01/28 23:08:12;;;;;;;16.48;8.45;;;16.60;70.70;;;;;;10480137;28;20093;-25
2023/01/28 23:13:14;;;;;;;17.70;9.38;;;16.30;71.30;;;;;;10483880;28;20748;-25
2023/01/28 23:28:59;;;;;;;19.52;9.48;;;15.80;75.60;;;;;;10480884;28;19920;-25
2023/01/28 23:34:03;;;;;;;;;;;15.90;74.40;;;;;;10469662;28;20386;-25
2023/01/28 23:39:05;;;;;;;18.33;9.23;;;15.60;77.60;;;;;;10475872;28;19920;-24
2023/01/28 23:44:07;;;;;;;15.77;7.80;;;14.40;84.80;;;;;;10479464;28;20131;-24
2023/01/28 23:49:10;;;;;;;13.73;7.30;;;15.40;78.10;;;;;;10494691;28;20500;-25
2023/01/28 23:54:12;;;;;;;16.05;7.68;;;15.40;72.60;;;;;;10501387;28;20492;-25
2023/01/28 23:59:13;;;;;;;22.00;10.47;;;14.60;75.80;;;;;;10478869;28;20072;-25
